Time;durP1;ratioP1;P1;durP2;ratioP2;P2;SDS_P1;SDS_P2;PMS_P1;PMS_P2;Temp;Humidity;BMP_temperature;BMP_pressure;BME280_temperature;BME280_humidity;BME280_pressure;Samples;Min_cycle;Max_cycle;Signal;HPM_P1;HPM_P2
2022/08/13 00:00:59;;;;;;;2.10;1.90;;;;;26.90;100632.00;;;;2086399;28;20963;-53
2022/08/13 00:02:06;;;;;;;2.47;1.90;;;;;26.90;100628.00;;;;2086792;28;20567;-52
2022/08/13 00:03:10;;;;;;;1.90;1.80;;;;;26.90;100634.00;;;;2085991;28;21022;-52
2022/08/13 00:04:14;;;;;;;2.00;1.60;;;;;26.90;100643.00;;;;2086019;28;20455;-53
2022/08/13 00:05:14;;;;;;;2.30;2.00;;;;;26.90;100637.00;;;;2086499;28;20463;-52
2022/08/13 00:06:47;;;;;;;2.00;1.57;;;;;26.90;100638.00;;;;2085829;28;20474;-53
2022/08/13 00:07:36;;;;;;;1.93;1.83;;;;;26.90;100632.00;;;;2085203;28;23440;-54
2022/08/13 00:08:37;;;;;;;1.60;1.50;;;;;26.90;100631.00;;;;2086566;28;20459;-53
2022/08/13 00:09:39;;;;;;;1.80;1.70;;;;;26.90;100640.00;;;;2086691;28;21271;-53
2022/08/13 00:10:40;;;;;;;1.90;1.80;;;;;26.90;100638.00;;;;2086646;28;20455;-53
2022/08/13 00:13:03;;;;;;;1.80;1.70;;;;;26.90;100639.00;;;;2084796;28;21002;-53
2022/08/13 00:14:04;;;;;;;2.00;1.90;;;;;26.90;100641.00;;;;2086483;28;20458;-53
2022/08/13 00:15:13;;;;;;;1.83;1.73;;;;;26.90;100638.00;;;;2086364;28;20457;-53
2022/08/13 00:16:13;;;;;;;1.70;1.60;;;;;26.90;100641.00;;;;2086713;28;20581;-53
2022/08/13 00:17:14;;;;;;;2.30;2.10;;;;;26.90;100640.00;;;;2086043;28;20452;-52
2022/08/13 00:18:18;;;;;;;1.90;1.80;;;;;26.90;100640.00;;;;2085960;28;20209;-53
2022/08/13 00:19:19;;;;;;;2.07;1.90;;;;;26.90;100644.00;;;;2086094;28;20595;-53
2022/08/13 00:20:21;;;;;;;1.60;1.50;;;;;26.90;100642.00;;;;2086536;28;20459;-52
2022/08/13 00:21:23;;;;;;;1.83;1.73;;;;;26.90;100643.00;;;;2086148;28;20470;-53
2022/08/13 00:22:25;;;;;;;1.93;1.83;;;;;26.90;100638.00;;;;2085416;28;20452;-52
2022/08/13 00:23:26;;;;;;;1.80;1.70;;;;;26.90;100644.00;;;;2085693;28;20454;-53
2022/08/13 00:24:29;;;;;;;1.70;1.40;;;;;26.90;100642.00;;;;2085750;28;20910;-53
2022/08/13 00:25:30;;;;;;;1.90;1.70;;;;;26.90;100641.00;;;;2086641;28;20498;-53
2022/08/13 00:26:31;;;;;;;2.10;1.70;;;;;26.90;100640.00;;;;2086520;28;20990;-53
2022/08/13 00:27:32;;;;;;;2.13;1.93;;;;;26.90;100638.00;;;;2085312;28;20335;-53
2022/08/13 00:28:32;;;;;;;1.67;1.57;;;;;26.90;100636.00;;;;2085217;28;20448;-53
2022/08/13 00:29:33;;;;;;;1.90;1.80;;;;;26.90;100641.00;;;;2086324;28;20217;-53
2022/08/13 00:30:34;;;;;;;1.50;1.40;;;;;26.90;100635.00;;;;2086314;28;20678;-53
2022/08/13 00:31:34;;;;;;;1.73;1.63;;;;;26.90;100642.00;;;;2086051;28;20319;-53
2022/08/13 00:32:35;;;;;;;1.67;1.57;;;;;26.90;100640.00;;;;2086405;28;20467;-53
2022/08/13 00:33:36;;;;;;;1.87;1.77;;;;;26.90;100645.00;;;;2086232;28;20301;-53
2022/08/13 00:34:36;;;;;;;1.67;1.57;;;;;26.90;100645.00;;;;2086037;28;20717;-53
2022/08/13 00:35:37;;;;;;;1.60;1.33;;;;;26.90;100642.00;;;;2087157;28;20451;-53
2022/08/13 00:36:37;;;;;;;1.90;1.80;;;;;26.90;100644.00;;;;2087983;28;20228;-53
2022/08/13 00:37:41;;;;;;;2.17;1.70;;;;;26.90;100646.00;;;;2086832;28;20220;-53
2022/08/13 00:38:44;;;;;;;1.97;1.87;;;;;26.90;100644.00;;;;2087641;28;20220;-53
2022/08/13 00:39:46;;;;;;;1.83;1.63;;;;;26.90;100634.00;;;;2087714;28;20920;-53
2022/08/13 00:40:49;;;;;;;1.40;1.30;;;;;26.90;100634.00;;;;2087728;28;20901;-53
2022/08/13 00:41:50;;;;;;;2.10;1.70;;;;;26.90;100631.00;;;;2087510;28;20490;-53
2022/08/13 00:42:53;;;;;;;1.83;1.73;;;;;26.90;100634.00;;;;2087625;28;20460;-53
2022/08/13 00:43:53;;;;;;;2.70;1.67;;;;;26.90;100635.00;;;;2087191;28;20217;-53
2022/08/13 00:44:53;;;;;;;1.60;1.50;;;;;26.90;100627.00;;;;2087521;28;20450;-54
2022/08/13 00:45:54;;;;;;;1.90;1.70;;;;;26.90;100633.00;;;;2087771;28;20217;-53
2022/08/13 00:48:41;;;;;;;1.50;1.40;;;;;26.90;100637.00;;;;2087623;28;20213;-53
2022/08/13 00:49:33;;;;;;;1.80;1.70;;;;;26.90;100626.00;;;;2087362;28;20467;-53
2022/08/13 00:50:35;;;;;;;1.77;1.63;;;;;26.90;100651.00;;;;2088045;28;20910;-53
2022/08/13 00:51:36;;;;;;;1.87;1.70;;;;;26.90;100628.00;;;;2087875;28;20712;-52
2022/08/13 00:52:38;;;;;;;2.10;1.90;;;;;26.90;100624.00;;;;2085175;28;20552;-53
2022/08/13 00:53:38;;;;;;;1.70;1.60;;;;;26.90;100629.00;;;;2079730;28;20456;-53
2022/08/13 00:54:40;;;;;;;1.70;1.60;;;;;26.90;100663.00;;;;2079655;28;20499;-53
2022/08/13 00:55:41;;;;;;;1.83;1.73;;;;;26.90;100628.00;;;;2078901;28;20225;-53
2022/08/13 00:56:42;;;;;;;1.83;1.60;;;;;26.90;100620.00;;;;2078874;28;20479;-53
2022/08/13 00:57:46;;;;;;;2.23;1.90;;;;;26.90;100623.00;;;;2078937;28;21176;-53
2022/08/13 00:58:46;;;;;;;2.00;1.80;;;;;26.90;100628.00;;;;2078853;28;20452;-53
2022/08/13 00:59:47;;;;;;;1.80;1.67;;;;;26.90;100619.00;;;;2079069;28;20448;-53
2022/08/13 01:00:48;;;;;;;1.60;1.50;;;;;26.90;100626.00;;;;2079059;28;20276;-54
2022/08/13 01:01:48;;;;;;;1.90;1.63;;;;;26.90;100627.00;;;;2078869;28;20663;-53
2022/08/13 01:02:50;;;;;;;1.70;1.50;;;;;26.90;100626.00;;;;2079502;28;20463;-53
2022/08/13 01:03:50;;;;;;;1.73;1.60;;;;;26.90;100622.00;;;;2079142;28;20230;-53
2022/08/13 01:04:50;;;;;;;2.20;1.57;;;;;26.90;100623.00;;;;2070758;28;20468;-53
2022/08/13 01:05:52;;;;;;;1.90;1.80;;;;;26.90;100623.00;;;;2078947;28;20685;-53
2022/08/13 01:06:52;;;;;;;1.60;1.50;;;;;26.90;100637.00;;;;2079821;28;20221;-53
2022/08/13 01:07:53;;;;;;;1.60;1.50;;;;;26.90;100624.00;;;;2078923;28;20460;-53
2022/08/13 01:08:53;;;;;;;1.80;1.70;;;;;26.90;100625.00;;;;2079195;28;20223;-53
2022/08/13 01:09:53;;;;;;;1.60;1.50;;;;;26.90;100623.00;;;;2078943;28;20237;-53
2022/08/13 01:10:56;;;;;;;1.87;1.77;;;;;26.90;100625.00;;;;2078803;28;20309;-53
2022/08/13 01:11:58;;;;;;;1.70;1.60;;;;;26.90;100629.00;;;;2078475;28;20282;-54
2022/08/13 01:12:58;;;;;;;2.00;1.80;;;;;26.80;100624.00;;;;2078907;28;20461;-53
2022/08/13 01:14:00;;;;;;;1.57;1.47;;;;;26.90;100627.00;;;;2083294;28;20456;-53
2022/08/13 01:15:02;;;;;;;1.90;1.70;;;;;26.90;100629.00;;;;2079091;28;20264;-53
2022/08/13 01:16:04;;;;;;;2.10;1.90;;;;;26.80;100614.00;;;;2086916;28;20419;-53
2022/08/13 01:17:04;;;;;;;1.90;1.80;;;;;26.90;100633.00;;;;2087080;28;20910;-52
2022/08/13 01:18:04;;;;;;;2.20;2.00;;;;;26.90;100626.00;;;;2086336;28;20469;-53
2022/08/13 01:19:07;;;;;;;1.90;1.80;;;;;26.90;100629.00;;;;2078893;28;20644;-53
2022/08/13 01:20:09;;;;;;;2.00;1.77;;;;;26.90;100633.00;;;;2079004;28;20694;-53
2022/08/13 01:21:15;;;;;;;2.20;2.00;;;;;26.80;100632.00;;;;2087526;28;20462;-53
2022/08/13 01:22:15;;;;;;;1.70;1.60;;;;;26.80;100621.00;;;;2087713;28;20447;-53
2022/08/13 01:23:17;;;;;;;1.83;1.73;;;;;26.90;100627.00;;;;2087106;28;20893;-53
2022/08/13 01:24:17;;;;;;;1.70;1.60;;;;;26.80;100627.00;;;;2086857;28;20217;-53
2022/08/13 01:25:22;;;;;;;1.80;1.70;;;;;26.90;100631.00;;;;2087418;28;20455;-52
2022/08/13 01:26:22;;;;;;;1.63;1.53;;;;;26.90;100651.00;;;;2087620;28;20247;-53
2022/08/13 01:27:26;;;;;;;1.93;1.83;;;;;26.80;100630.00;;;;2083215;28;20967;-53
2022/08/13 01:28:27;;;;;;;2.73;1.60;;;;;26.80;100631.00;;;;2079310;28;20309;-53
2022/08/13 01:29:27;;;;;;;2.00;1.90;;;;;26.80;100677.00;;;;2079305;28;20452;-54
2022/08/13 01:30:29;;;;;;;1.90;1.80;;;;;26.80;100624.00;;;;2079422;28;21149;-53
2022/08/13 01:31:29;;;;;;;2.10;1.90;;;;;26.90;100626.00;;;;2078503;28;20217;-53
2022/08/13 01:32:29;;;;;;;2.60;1.80;;;;;26.80;100630.00;;;;2078857;28;20985;-53
2022/08/13 01:33:30;;;;;;;1.40;1.30;;;;;26.90;100628.00;;;;2078736;28;20702;-53
2022/08/13 01:34:31;;;;;;;1.90;1.70;;;;;26.80;100629.00;;;;2078774;28;20694;-53
2022/08/13 01:35:31;;;;;;;1.67;1.57;;;;;26.80;100615.00;;;;2078505;28;20224;-53
2022/08/13 01:36:32;;;;;;;2.10;1.60;;;;;26.80;100622.00;;;;2070585;28;20455;-53
2022/08/13 01:37:34;;;;;;;1.67;1.57;;;;;26.80;100596.00;;;;2077979;28;21032;-53
2022/08/13 01:38:34;;;;;;;1.60;1.50;;;;;26.80;100619.00;;;;2078546;28;20427;-53
2022/08/13 01:39:35;;;;;;;1.77;1.67;;;;;26.80;100616.00;;;;2078465;28;20558;-53
2022/08/13 01:40:35;;;;;;;1.60;1.50;;;;;26.80;100624.00;;;;2078717;28;20209;-53
2022/08/13 01:41:36;;;;;;;1.77;1.67;;;;;26.80;100619.00;;;;2078506;28;20217;-53
2022/08/13 01:42:41;;;;;;;1.70;1.60;;;;;26.80;100613.00;;;;2079581;28;20268;-53
2022/08/13 01:43:42;;;;;;;2.03;1.83;;;;;26.80;100610.00;;;;2079202;28;20870;-53
2022/08/13 01:44:43;;;;;;;1.80;1.70;;;;;26.80;100609.00;;;;2078633;28;20448;-53
2022/08/13 01:45:44;;;;;;;1.60;1.50;;;;;26.80;100614.00;;;;2078879;28;20544;-52
2022/08/13 01:50:42;;;;;;;1.60;1.50;;;;;26.80;100612.00;;;;2079266;28;20427;-53
2022/08/13 01:51:43;;;;;;;1.80;1.60;;;;;26.80;100605.00;;;;2078983;28;20464;-53
2022/08/13 01:52:47;;;;;;;1.73;1.50;;;;;26.80;100607.00;;;;2078640;28;20508;-53
2022/08/13 01:53:52;;;;;;;1.50;1.40;;;;;26.80;100608.00;;;;2078824;28;20301;-53
2022/08/13 01:54:53;;;;;;;1.90;1.60;;;;;26.80;100615.00;;;;2079230;28;20452;-53
2022/08/13 01:55:55;;;;;;;1.93;1.63;;;;;26.80;100605.00;;;;2079381;28;20445;-53
2022/08/13 01:56:59;;;;;;;2.07;1.87;;;;;26.80;100617.00;;;;2079324;28;20264;-53
2022/08/13 01:57:59;;;;;;;1.90;1.70;;;;;26.80;100615.00;;;;2078328;28;20510;-53
2022/08/13 01:59:01;;;;;;;1.73;1.63;;;;;26.80;100613.00;;;;2078578;28;21073;-53
2022/08/13 02:00:04;;;;;;;1.30;1.20;;;;;26.80;100609.00;;;;2078295;28;20209;-54
2022/08/13 02:01:05;;;;;;;1.70;1.60;;;;;26.80;100614.00;;;;2078542;28;20430;-53
2022/08/13 02:02:10;;;;;;;1.63;1.53;;;;;26.80;100613.00;;;;2078957;28;20448;-53
2022/08/13 02:03:12;;;;;;;1.70;1.60;;;;;26.80;100620.00;;;;2079196;28;20218;-52
2022/08/13 02:04:15;;;;;;;2.00;1.80;;;;;26.80;100616.00;;;;2079287;28;20490;-53
2022/08/13 02:05:15;;;;;;;1.57;1.47;;;;;26.80;100617.00;;;;2079582;28;20453;-53
2022/08/13 02:06:23;;;;;;;1.57;1.47;;;;;26.80;100609.00;;;;2086356;28;21144;-53
2022/08/13 02:07:23;;;;;;;1.67;1.57;;;;;26.80;100613.00;;;;2085705;28;20228;-53
2022/08/13 02:08:24;;;;;;;1.77;1.67;;;;;26.80;100610.00;;;;2086528;28;20487;-53
2022/08/13 02:09:24;;;;;;;1.77;1.67;;;;;26.80;100609.00;;;;2086677;28;20294;-53
2022/08/13 02:10:24;;;;;;;1.80;1.70;;;;;26.80;100602.00;;;;2086742;28;20205;-53
2022/08/13 02:11:29;;;;;;;1.73;1.63;;;;;26.80;100612.00;;;;2083104;28;20264;-53
2022/08/13 02:12:30;;;;;;;1.80;1.70;;;;;26.80;100606.00;;;;2079047;28;20217;-53
2022/08/13 02:13:30;;;;;;;1.53;1.43;;;;;26.80;100623.00;;;;2070280;28;21242;-53
2022/08/13 02:14:32;;;;;;;1.63;1.53;;;;;26.80;100616.00;;;;2070311;28;20255;-53
2022/08/13 02:15:32;;;;;;;1.67;1.50;;;;;26.80;100614.00;;;;2070254;28;20213;-53
2022/08/13 02:16:34;;;;;;;1.63;1.53;;;;;26.80;100618.00;;;;2062391;28;20518;-53
2022/08/13 02:17:41;;;;;;;1.63;1.53;;;;;26.80;100612.00;;;;2076846;28;20219;-55
2022/08/13 02:18:41;;;;;;;1.60;1.50;;;;;26.80;100613.00;;;;2078532;28;20419;-53
2022/08/13 02:19:43;;;;;;;1.73;1.63;;;;;26.80;100623.00;;;;2070323;28;20454;-53
2022/08/13 02:20:45;;;;;;;1.40;1.30;;;;;26.80;100618.00;;;;2075842;28;20206;-53
2022/08/13 02:21:45;;;;;;;1.60;1.50;;;;;26.80;100616.00;;;;2081175;28;20447;-53
2022/08/13 02:22:47;;;;;;;1.70;1.60;;;;;26.80;100606.00;;;;2087107;28;20892;-53
2022/08/13 02:23:56;;;;;;;2.00;1.80;;;;;26.80;100615.00;;;;2086568;28;20205;-53
2022/08/13 02:24:57;;;;;;;1.80;1.70;;;;;26.80;100621.00;;;;2086328;28;20529;-53
2022/08/13 02:25:57;;;;;;;1.50;1.40;;;;;26.80;100617.00;;;;2087088;28;20462;-53
2022/08/13 02:26:57;;;;;;;1.50;1.40;;;;;26.60;100631.00;;;;2087350;28;20588;-53
2022/08/13 02:27:58;;;;;;;1.63;1.53;;;;;26.80;100586.00;;;;2086304;28;20216;-53
2022/08/13 02:29:00;;;;;;;2.20;2.00;;;;;26.80;100481.00;;;;2079533;28;20316;-52
2022/08/13 02:30:00;;;;;;;1.40;1.30;;;;;26.80;100619.00;;;;2086589;28;20692;-53
2022/08/13 02:31:01;;;;;;;1.67;1.50;;;;;26.80;100624.00;;;;2087219;28;20470;-53
2022/08/13 02:32:01;;;;;;;2.50;1.90;;;;;26.80;100629.00;;;;2086954;28;20705;-54
2022/08/13 02:33:03;;;;;;;1.70;1.60;;;;;26.80;100622.00;;;;2087084;28;20236;-53
2022/08/13 02:34:03;;;;;;;1.80;1.70;;;;;26.80;100618.00;;;;2086217;28;20216;-53
2022/08/13 02:35:04;;;;;;;1.70;1.40;;;;;26.80;100633.00;;;;2086596;28;20975;-53
2022/08/13 02:36:10;;;;;;;1.67;1.57;;;;;26.80;100627.00;;;;2086718;28;20300;-53
2022/08/13 02:37:11;;;;;;;1.57;1.47;;;;;26.80;100616.00;;;;2084887;28;20623;-53
2022/08/13 02:38:12;;;;;;;2.43;1.67;;;;;26.80;100610.00;;;;2085294;28;20535;-55
2022/08/13 02:39:12;;;;;;;1.90;1.80;;;;;26.80;100631.00;;;;2087026;28;20458;-54
2022/08/13 02:41:38;;;;;;;1.60;1.50;;;;;26.80;100620.00;;;;2086660;28;20327;-53
2022/08/13 02:42:38;;;;;;;1.40;1.30;;;;;26.80;100618.00;;;;2086533;28;20467;-53
2022/08/13 02:43:42;;;;;;;1.60;1.50;;;;;26.80;100619.00;;;;2086839;28;20485;-53
2022/08/13 02:44:44;;;;;;;1.50;1.40;;;;;26.80;100614.00;;;;2086390;28;20713;-53
2022/08/13 02:45:45;;;;;;;1.80;1.70;;;;;26.80;100650.00;;;;2086526;28;20472;-53
2022/08/13 02:46:49;;;;;;;1.93;1.83;;;;;26.80;100620.00;;;;2086205;28;21040;-54
2022/08/13 02:47:51;;;;;;;1.50;1.40;;;;;26.80;100631.00;;;;2085601;28;20339;-53
2022/08/13 02:48:52;;;;;;;1.60;1.50;;;;;26.80;100625.00;;;;2086739;28;20882;-53
2022/08/13 02:49:52;;;;;;;2.00;1.90;;;;;26.80;100622.00;;;;2087075;28;20433;-53
2022/08/13 02:50:55;;;;;;;1.50;1.40;;;;;26.80;100626.00;;;;2087105;28;20459;-53
2022/08/13 02:51:55;;;;;;;1.77;1.50;;;;;26.80;100623.00;;;;2086926;28;20719;-53
2022/08/13 02:52:56;;;;;;;1.73;1.63;;;;;26.80;100621.00;;;;2086810;28;20459;-53
2022/08/13 02:53:59;;;;;;;1.40;1.30;;;;;26.80;100621.00;;;;2086986;28;20212;-53
2022/08/13 02:54:59;;;;;;;1.83;1.50;;;;;26.80;100621.00;;;;2086960;28;20227;-53
2022/08/13 02:56:00;;;;;;;1.60;1.50;;;;;26.80;100624.00;;;;2087029;28;20448;-53
2022/08/13 02:57:01;;;;;;;1.40;1.30;;;;;26.80;100630.00;;;;2085591;28;20219;-53
2022/08/13 02:58:01;;;;;;;1.47;1.37;;;;;26.80;100654.00;;;;2084887;28;20208;-53
2022/08/13 02:59:02;;;;;;;1.70;1.60;;;;;26.80;100629.00;;;;2086469;28;20213;-53
2022/08/13 03:00:03;;;;;;;1.50;1.40;;;;;26.80;100626.00;;;;2086065;28;21090;-53
2022/08/13 03:01:04;;;;;;;1.83;1.73;;;;;26.80;100625.00;;;;2086409;28;20212;-53
2022/08/13 03:02:04;;;;;;;1.47;1.37;;;;;26.80;100628.00;;;;2086230;28;20970;-52
2022/08/13 03:03:05;;;;;;;1.90;1.70;;;;;26.80;100630.00;;;;2086254;28;20227;-53
2022/08/13 03:04:08;;;;;;;1.63;1.50;;;;;26.80;100631.00;;;;2086318;28;20634;-53
2022/08/13 03:05:09;;;;;;;1.60;1.40;;;;;26.80;100627.00;;;;2086035;28;20216;-53
2022/08/13 03:06:09;;;;;;;1.60;1.50;;;;;26.80;100633.00;;;;2086349;28;20785;-53
2022/08/13 03:07:10;;;;;;;1.63;1.53;;;;;26.80;100636.00;;;;2086017;28;20945;-53
2022/08/13 03:08:11;;;;;;;1.77;1.67;;;;;26.80;100629.00;;;;2085552;28;20762;-53
2022/08/13 03:09:11;;;;;;;1.70;1.53;;;;;26.80;100633.00;;;;2086118;28;20704;-56
2022/08/13 03:10:12;;;;;;;1.57;1.47;;;;;26.80;100634.00;;;;2086324;28;20462;-54
2022/08/13 03:11:13;;;;;;;2.00;1.90;;;;;26.80;100607.00;;;;2086730;28;20212;-53
2022/08/13 03:12:14;;;;;;;1.67;1.40;;;;;26.80;100632.00;;;;2085656;28;20448;-53
2022/08/13 03:13:22;;;;;;;1.83;1.73;;;;;26.80;100629.00;;;;2085773;28;20216;-52
2022/08/13 03:14:22;;;;;;;1.80;1.70;;;;;26.70;100630.00;;;;2086489;28;20448;-53
2022/08/13 03:15:22;;;;;;;1.87;1.70;;;;;26.70;100622.00;;;;2086213;28;20460;-52
2022/08/13 03:16:25;;;;;;;1.60;1.50;;;;;26.70;100640.00;;;;2086266;28;20209;-53
2022/08/13 03:17:25;;;;;;;1.53;1.43;;;;;26.80;100637.00;;;;2084976;28;20727;-53
2022/08/13 03:18:26;;;;;;;1.50;1.40;;;;;26.80;100636.00;;;;2086950;28;20425;-53
2022/08/13 03:19:26;;;;;;;1.50;1.40;;;;;26.70;100641.00;;;;2086630;28;20220;-53
2022/08/13 03:20:26;;;;;;;1.43;1.33;;;;;26.70;100641.00;;;;2086800;28;20212;-53
2022/08/13 03:21:32;;;;;;;1.67;1.43;;;;;26.80;100644.00;;;;2086654;28;20646;-53
2022/08/13 03:22:46;;;;;;;2.00;1.30;;;;;26.80;100637.00;;;;2086515;28;20287;-53
2022/08/13 03:23:46;;;;;;;1.80;1.60;;;;;26.70;100636.00;;;;2086557;28;20534;-53
2022/08/13 03:24:47;;;;;;;1.60;1.50;;;;;26.80;100635.00;;;;2086867;28;20457;-53
2022/08/13 03:25:47;;;;;;;1.50;1.40;;;;;26.70;100630.00;;;;2086632;28;20240;-52
2022/08/13 03:26:49;;;;;;;1.63;1.53;;;;;26.70;100630.00;;;;2086645;28;20287;-55
2022/08/13 03:27:50;;;;;;;1.53;1.43;;;;;26.70;100643.00;;;;2085711;28;20509;-53
2022/08/13 03:28:51;;;;;;;1.60;1.50;;;;;26.80;100641.00;;;;2086210;28;20275;-53
2022/08/13 03:29:53;;;;;;;1.80;1.70;;;;;26.70;100629.00;;;;2086194;28;20295;-53
2022/08/13 03:30:53;;;;;;;1.57;1.47;;;;;26.70;100637.00;;;;2086993;28;20462;-53
2022/08/13 03:31:54;;;;;;;1.40;1.30;;;;;26.70;100631.00;;;;2086740;28;20463;-53
2022/08/13 03:32:54;;;;;;;1.40;1.30;;;;;26.70;100630.00;;;;2086706;28;20220;-53
2022/08/13 03:33:58;;;;;;;1.93;1.80;;;;;26.70;100639.00;;;;2086669;28;20717;-53
2022/08/13 03:34:59;;;;;;;1.37;1.20;;;;;26.70;100633.00;;;;2086565;28;20224;-53
2022/08/13 03:35:59;;;;;;;1.60;1.50;;;;;26.70;100634.00;;;;2086735;28;20470;-53
2022/08/13 03:37:00;;;;;;;1.70;1.60;;;;;26.70;100640.00;;;;2086918;28;20541;-53
2022/08/13 03:38:01;;;;;;;1.50;1.40;;;;;26.70;100631.00;;;;2085736;28;20217;-53
2022/08/13 03:39:01;;;;;;;1.80;1.70;;;;;26.70;100629.00;;;;2086956;28;20219;-53
2022/08/13 03:40:03;;;;;;;1.50;1.40;;;;;26.70;100638.00;;;;2086930;28;20685;-53
2022/08/13 03:41:11;;;;;;;1.43;1.33;;;;;26.70;100632.00;;;;2086709;28;20208;-53
2022/08/13 03:42:11;;;;;;;1.73;1.63;;;;;26.70;100640.00;;;;2085767;28;20459;-53
2022/08/13 03:43:12;;;;;;;1.47;1.37;;;;;26.70;100632.00;;;;2085586;28;20485;-53
2022/08/13 03:44:12;;;;;;;1.43;1.33;;;;;26.70;100637.00;;;;2086147;28;20213;-53
2022/08/13 03:45:12;;;;;;;1.57;1.47;;;;;26.70;100637.00;;;;2084976;28;20617;-52
2022/08/13 03:46:15;;;;;;;1.50;1.40;;;;;26.70;100633.00;;;;2086656;28;20632;-52
2022/08/13 03:47:16;;;;;;;1.70;1.60;;;;;26.70;100628.00;;;;2086082;28;20216;-53
2022/08/13 03:48:16;;;;;;;1.80;1.70;;;;;26.70;100628.00;;;;2086268;28;20857;-53
2022/08/13 03:49:19;;;;;;;1.57;1.43;;;;;26.70;100637.00;;;;2086563;28;20671;-58
2022/08/13 03:50:20;;;;;;;1.70;1.60;;;;;26.70;100630.00;;;;2086628;28;20863;-53
2022/08/13 03:51:23;;;;;;;1.33;1.23;;;;;26.70;100629.00;;;;2086807;28;20474;-53
2022/08/13 03:52:24;;;;;;;1.53;1.43;;;;;26.70;100635.00;;;;2086213;28;21072;-53
2022/08/13 03:53:24;;;;;;;1.80;1.53;;;;;26.70;100629.00;;;;2086714;28;20482;-53
2022/08/13 03:54:25;;;;;;;1.50;1.40;;;;;26.70;100629.00;;;;2086703;28;20451;-53
2022/08/13 03:55:25;;;;;;;1.50;1.40;;;;;26.70;100628.00;;;;2086733;28;20213;-53
2022/08/13 03:56:25;;;;;;;1.43;1.33;;;;;26.70;100632.00;;;;2086712;28;20717;-52
2022/08/13 03:57:26;;;;;;;2.10;1.53;;;;;26.70;100633.00;;;;2084796;28;20221;-53
2022/08/13 03:58:28;;;;;;;1.70;1.60;;;;;26.70;100628.00;;;;2085950;28;20217;-52
2022/08/13 03:59:31;;;;;;;1.57;1.47;;;;;26.70;100630.00;;;;2086186;28;20278;-53
2022/08/13 04:00:36;;;;;;;1.37;1.27;;;;;26.70;100630.00;;;;2086010;28;20491;-53
2022/08/13 04:01:37;;;;;;;1.50;1.40;;;;;26.70;100632.00;;;;2085914;28;20455;-52
2022/08/13 04:02:40;;;;;;;1.80;1.70;;;;;26.70;100632.00;;;;2085890;28;20895;-52
2022/08/13 04:03:41;;;;;;;1.53;1.43;;;;;26.70;100636.00;;;;2086827;28;20217;-52
2022/08/13 04:04:46;;;;;;;1.60;1.50;;;;;26.70;100632.00;;;;2086292;28;20452;-53
2022/08/13 04:05:48;;;;;;;2.63;1.50;;;;;26.70;100635.00;;;;2086719;28;20458;-53
2022/08/13 04:06:48;;;;;;;1.53;1.43;;;;;26.70;100631.00;;;;2086694;28;20459;-52
2022/08/13 04:07:50;;;;;;;1.67;1.50;;;;;26.70;100637.00;;;;2086019;28;20455;-52
2022/08/13 04:08:52;;;;;;;1.40;1.30;;;;;26.70;100632.00;;;;2085559;28;20221;-54
2022/08/13 04:09:54;;;;;;;1.50;1.40;;;;;26.70;100633.00;;;;2087390;28;20462;-53
2022/08/13 04:10:58;;;;;;;3.00;1.60;;;;;26.70;100632.00;;;;2087487;28;20455;-53
2022/08/13 04:11:58;;;;;;;1.63;1.53;;;;;26.70;100628.00;;;;2087725;28;20532;-52
2022/08/13 04:12:58;;;;;;;1.77;1.67;;;;;26.70;100638.00;;;;2088176;28;20460;-53
2022/08/13 04:13:59;;;;;;;1.60;1.40;;;;;26.70;100637.00;;;;2088335;28;20221;-52
2022/08/13 04:14:59;;;;;;;1.70;1.50;;;;;26.70;100632.00;;;;2088212;28;20255;-53
2022/08/13 04:15:59;;;;;;;1.50;1.40;;;;;26.70;100635.00;;;;2088266;28;20232;-52
2022/08/13 04:17:00;;;;;;;1.27;1.17;;;;;26.70;100632.00;;;;2081896;28;20209;-53
2022/08/13 04:18:00;;;;;;;1.40;1.00;;;;;26.70;100630.00;;;;2079080;28;20221;-53
2022/08/13 04:19:01;;;;;;;1.43;1.33;;;;;26.70;100630.00;;;;2079860;28;20302;-53
2022/08/13 04:20:02;;;;;;;2.00;1.87;;;;;26.70;100630.00;;;;2080132;28;20264;-53
2022/08/13 04:21:04;;;;;;;1.53;1.43;;;;;26.70;100634.00;;;;2079927;28;20317;-53
2022/08/13 04:22:06;;;;;;;1.63;1.50;;;;;26.70;100639.00;;;;2079458;28;20443;-53
2022/08/13 04:23:16;;;;;;;1.80;1.50;;;;;26.70;100635.00;;;;2079301;28;20464;-53
2022/08/13 04:24:18;;;;;;;2.03;1.60;;;;;26.70;100640.00;;;;2080016;28;20548;-53
2022/08/13 04:25:18;;;;;;;1.67;1.43;;;;;26.70;100636.00;;;;2084193;28;20490;-53
2022/08/13 04:26:23;;;;;;;2.23;1.57;;;;;26.70;100644.00;;;;2088286;28;20451;-53
2022/08/13 04:27:23;;;;;;;1.90;1.60;;;;;26.70;100639.00;;;;2087104;28;20236;-54
2022/08/13 04:28:24;;;;;;;1.57;1.47;;;;;26.70;100642.00;;;;2084490;28;21562;-54
2022/08/13 04:29:24;;;;;;;1.30;1.20;;;;;26.70;100641.00;;;;2080022;28;20223;-53
2022/08/13 04:30:25;;;;;;;1.60;1.40;;;;;26.70;100635.00;;;;2079847;28;20459;-53
2022/08/13 04:31:26;;;;;;;1.60;1.43;;;;;26.70;100636.00;;;;2080004;28;20214;-53
2022/08/13 04:32:27;;;;;;;1.50;1.40;;;;;26.70;100639.00;;;;2079735;28;20237;-53
2022/08/13 04:33:27;;;;;;;1.53;1.43;;;;;26.70;100631.00;;;;2079925;28;20460;-52
2022/08/13 04:34:28;;;;;;;1.30;1.20;;;;;26.70;100633.00;;;;2079868;28;20224;-53
2022/08/13 04:35:28;;;;;;;1.50;1.40;;;;;26.70;100640.00;;;;2080093;28;20225;-53
2022/08/13 04:36:28;;;;;;;1.40;1.30;;;;;26.70;100642.00;;;;2079909;28;20221;-53
2022/08/13 04:37:29;;;;;;;1.70;1.60;;;;;26.70;100637.00;;;;2082849;28;20328;-52
2022/08/13 04:38:29;;;;;;;1.60;1.50;;;;;26.70;100635.00;;;;2080190;28;20275;-53
2022/08/13 04:39:30;;;;;;;1.33;1.23;;;;;26.70;100632.00;;;;2082721;28;20230;-53
2022/08/13 04:40:30;;;;;;;1.60;1.50;;;;;26.70;100635.00;;;;2088177;28;20259;-53
2022/08/13 04:41:31;;;;;;;1.50;1.30;;;;;26.70;100639.00;;;;2087541;28;20252;-53
2022/08/13 04:42:48;;;;;;;2.00;1.30;;;;;26.70;100638.00;;;;2081923;28;20217;-53
2022/08/13 04:43:48;;;;;;;1.37;1.27;;;;;26.70;100638.00;;;;2084516;28;20266;-53
2022/08/13 04:44:49;;;;;;;1.30;1.20;;;;;26.70;100642.00;;;;2087943;28;20455;-53
2022/08/13 04:45:49;;;;;;;1.63;1.53;;;;;26.70;100641.00;;;;2088290;28;20251;-52
2022/08/13 04:46:49;;;;;;;1.50;1.40;;;;;26.70;100637.00;;;;2088300;28;20274;-53
2022/08/13 04:47:50;;;;;;;1.50;1.40;;;;;26.70;100634.00;;;;2087111;28;20221;-53
2022/08/13 04:48:50;;;;;;;1.50;1.40;;;;;26.70;100636.00;;;;2088022;28;20221;-53
2022/08/13 04:49:50;;;;;;;1.40;1.30;;;;;26.70;100641.00;;;;2088227;28;20260;-53
2022/08/13 04:50:52;;;;;;;1.80;1.70;;;;;26.70;100638.00;;;;2088173;28;20216;-53
2022/08/13 04:51:52;;;;;;;2.13;1.47;;;;;26.70;100641.00;;;;2088033;28;20599;-53
2022/08/13 04:52:52;;;;;;;1.60;1.50;;;;;26.70;100641.00;;;;2087625;28;20463;-53
2022/08/13 04:53:53;;;;;;;1.50;1.40;;;;;26.70;100640.00;;;;2087791;28;20241;-53
2022/08/13 04:54:53;;;;;;;1.80;1.70;;;;;26.00;100635.00;;;;2088109;28;20224;-53
2022/08/13 04:55:54;;;;;;;1.40;1.30;;;;;26.70;100637.00;;;;2088062;28;20267;-53
2022/08/13 04:56:55;;;;;;;1.67;1.57;;;;;26.70;100634.00;;;;2087811;28;20236;-53
2022/08/13 04:57:55;;;;;;;1.50;1.40;;;;;26.70;100633.00;;;;2085965;28;20542;-53
2022/08/13 04:58:56;;;;;;;2.07;1.50;;;;;26.70;100633.00;;;;2087184;28;20271;-53
2022/08/13 04:59:56;;;;;;;1.50;1.40;;;;;26.70;100631.00;;;;2087360;28;20245;-53
2022/08/13 05:00:56;;;;;;;1.40;1.30;;;;;26.70;100633.00;;;;2087373;28;20310;-53
2022/08/13 05:01:57;;;;;;;1.40;1.30;;;;;26.70;100634.00;;;;2083593;28;22548;-53
2022/08/13 05:03:11;;;;;;;1.50;1.40;;;;;26.70;100631.00;;;;2087354;28;20221;-58
2022/08/13 05:04:11;;;;;;;1.40;1.20;;;;;26.70;100640.00;;;;2081528;28;20255;-53
2022/08/13 05:05:12;;;;;;;1.50;1.40;;;;;26.70;100631.00;;;;2079162;28;20447;-53
2022/08/13 05:06:17;;;;;;;1.97;1.50;;;;;26.70;100640.00;;;;2078589;28;20229;-53
2022/08/13 05:07:18;;;;;;;1.50;1.40;;;;;26.70;100636.00;;;;2079243;28;24990;-53
2022/08/13 05:08:19;;;;;;;1.70;1.60;;;;;26.70;100640.00;;;;2079407;28;20556;-53
2022/08/13 05:09:19;;;;;;;1.60;1.50;;;;;26.70;100636.00;;;;2078819;28;20869;-53
2022/08/13 05:10:20;;;;;;;1.20;1.10;;;;;26.70;100642.00;;;;2079878;28;20221;-52
2022/08/13 05:11:20;;;;;;;1.60;1.50;;;;;26.70;100662.00;;;;2079636;28;20237;-52
2022/08/13 05:12:21;;;;;;;1.70;1.60;;;;;26.70;100636.00;;;;2079634;28;20691;-52
2022/08/13 05:13:29;;;;;;;1.70;1.60;;;;;26.70;100639.00;;;;2086756;28;20237;-52